createdAt,value
2023-02-13T00:02:11.591Z,86.94
2023-02-13T00:05:14.172Z,85.99
2023-02-13T00:08:16.524Z,85.16
2023-02-13T00:11:20.554Z,86.40
2023-02-13T00:14:22.671Z,86.39
2023-02-13T00:17:26.528Z,86.97
2023-02-13T00:20:28.752Z,86.73
2023-02-13T00:23:33.168Z,86.39
2023-02-13T00:26:35.348Z,85.83
2023-02-13T00:29:38.880Z,86.77
2023-02-13T00:32:41.019Z,87.68
2023-02-13T00:35:43.472Z,86.43
2023-02-13T00:38:46.808Z,85.17
2023-02-13T00:41:49.300Z,85.87
2023-02-13T00:44:51.550Z,85.75
2023-02-13T00:47:54.124Z,85.81
2023-02-13T00:50:56.622Z,85.56
2023-02-13T00:53:59.379Z,86.67
2023-02-13T00:57:03.201Z,86.61
2023-02-13T01:00:06.576Z,88.26
2023-02-13T01:03:09.603Z,86.29
2023-02-13T01:06:12.745Z,86.19
2023-02-13T01:09:15.045Z,86.44
2023-02-13T01:12:17.548Z,85.65
2023-02-13T01:15:20.490Z,86.40
2023-02-13T01:18:24.213Z,86.40
2023-02-13T01:21:26.666Z,86.91
2023-02-13T01:24:31.130Z,86.44
2023-02-13T01:27:33.996Z,86.46
2023-02-13T01:30:36.990Z,86.02
2023-02-13T01:33:39.447Z,86.97
2023-02-13T01:36:43.040Z,86.87
2023-02-13T01:39:45.285Z,87.40
2023-02-13T01:42:48.103Z,87.54
2023-02-13T01:45:55.771Z,85.70
2023-02-13T01:49:05.345Z,86.94
2023-02-13T01:52:10.125Z,89.05
2023-02-13T01:55:14.248Z,89.06
2023-02-13T01:58:22.944Z,90.56
2023-02-13T02:01:27.108Z,87.47
2023-02-13T02:04:33.887Z,87.96
2023-02-13T02:07:39.595Z,88.31
2023-02-13T02:10:42.953Z,86.78
2023-02-13T02:13:46.320Z,86.40
2023-02-13T02:16:48.947Z,86.35
2023-02-13T02:20:35.014Z,87.64
2023-02-13T02:23:49.848Z,87.95
2023-02-13T02:27:25.817Z,88.15
2023-02-13T02:30:31.382Z,86.88
2023-02-13T02:33:59.635Z,86.42
2023-02-13T02:37:13.465Z,86.63
2023-02-13T02:40:21.759Z,87.67
2023-02-13T02:43:43.095Z,87.73
2023-02-13T02:47:13.574Z,86.80
2023-02-13T02:50:41.743Z,87.40
2023-02-13T02:53:53.029Z,86.92
2023-02-13T02:57:01.189Z,87.40
2023-02-13T03:00:42.322Z,87.27
2023-02-13T03:04:05.484Z,87.57
2023-02-13T03:07:11.606Z,87.78
2023-02-13T03:10:40.798Z,88.05
2023-02-13T03:13:47.820Z,88.30
2023-02-13T03:17:09.368Z,87.69
2023-02-13T03:20:30.231Z,87.58
2023-02-13T03:23:44.644Z,88.49
2023-02-13T03:27:14.234Z,88.72
2023-02-13T03:30:32.965Z,90.02
2023-02-13T03:34:06.572Z,89.83
2023-02-13T03:37:30.241Z,89.08
2023-02-13T03:41:19.296Z,89.07
2023-02-13T03:44:42.352Z,90.06
2023-02-13T03:47:45.358Z,89.77
2023-02-13T03:50:48.276Z,89.67
2023-02-13T03:53:56.032Z,89.53
2023-02-13T03:57:17.404Z,89.02
2023-02-13T04:00:21.546Z,89.67
2023-02-13T04:03:35.797Z,90.12
2023-02-13T04:07:12.138Z,89.32
2023-02-13T04:10:17.462Z,88.91
2023-02-13T04:13:38.868Z,89.08
2023-02-13T04:16:45.682Z,89.01
2023-02-13T04:19:48.025Z,90.02
2023-02-13T04:22:50.538Z,90.40
2023-02-13T04:25:55.598Z,90.11
2023-02-13T04:28:58.074Z,90.32
2023-02-13T04:32:01.658Z,90.18
2023-02-13T04:35:04.456Z,89.62
2023-02-13T04:38:06.640Z,89.86
2023-02-13T04:41:09.089Z,89.78
2023-02-13T04:44:11.302Z,90.07
2023-02-13T04:47:13.739Z,89.95
2023-02-13T04:50:15.988Z,89.63
2023-02-13T04:53:18.443Z,90.47
2023-02-13T04:56:20.569Z,90.42
2023-02-13T04:59:22.972Z,90.27
2023-02-13T05:02:25.386Z,90.51
2023-02-13T05:05:28.498Z,90.60
2023-02-13T05:08:30.697Z,90.78
2023-02-13T05:11:33.167Z,90.51
2023-02-13T05:14:35.349Z,90.65
2023-02-13T05:17:37.847Z,91.19
2023-02-13T05:20:40.065Z,91.31
2023-02-13T05:23:43.909Z,91.45
2023-02-13T05:26:46.061Z,91.35
2023-02-13T05:29:48.510Z,91.10
2023-02-13T05:32:54.956Z,89.93
2023-02-13T05:35:57.404Z,90.85
2023-02-13T05:39:00.736Z,90.37
2023-02-13T05:42:04.855Z,90.66
2023-02-13T05:45:07.901Z,90.30
2023-02-13T05:48:10.414Z,90.00
2023-02-13T05:51:12.663Z,91.16
2023-02-13T05:54:15.350Z,91.88
2023-02-13T05:57:17.564Z,91.26
2023-02-13T06:00:20.911Z,91.38
2023-02-13T06:03:25.213Z,91.20
2023-02-13T06:06:28.210Z,91.49
2023-02-13T06:09:30.650Z,91.20
2023-02-13T06:12:33.069Z,91.55
2023-02-13T06:15:35.512Z,91.38
2023-02-13T06:18:39.092Z,91.16
2023-02-13T06:21:41.963Z,91.02
2023-02-13T06:24:44.202Z,92.38
2023-02-13T06:27:46.829Z,91.45
2023-02-13T06:30:49.278Z,90.93
2023-02-13T06:33:52.180Z,91.65
2023-02-13T06:36:54.346Z,91.91
2023-02-13T06:39:56.821Z,91.44
2023-02-13T06:42:59.041Z,91.13
2023-02-13T06:46:06.162Z,91.16
2023-02-13T06:49:09.630Z,91.81
2023-02-13T06:52:12.336Z,91.81
2023-02-13T06:55:15.266Z,91.08
2023-02-13T06:58:18.451Z,91.55
2023-02-13T07:01:20.760Z,91.08
2023-02-13T07:04:23.536Z,91.60
2023-02-13T07:07:25.904Z,90.90
2023-02-13T07:10:28.517Z,90.52
2023-02-13T07:13:30.697Z,90.23
2023-02-13T07:16:34.707Z,90.18
2023-02-13T07:19:37.037Z,89.75
2023-02-13T07:22:45.597Z,90.03
2023-02-13T07:25:47.936Z,89.80
2023-02-13T07:28:56.971Z,89.52
2023-02-13T07:32:09.199Z,90.00
2023-02-13T07:35:11.737Z,89.60
2023-02-13T07:38:14.110Z,89.66
2023-02-13T07:41:16.542Z,89.55
2023-02-13T07:44:18.661Z,90.00
2023-02-13T07:47:21.140Z,89.62
2023-02-13T07:50:24.137Z,89.39
2023-02-13T07:53:26.752Z,89.37
2023-02-13T07:56:28.910Z,89.38
2023-02-13T07:59:31.404Z,89.29
2023-02-13T08:02:33.660Z,89.94
2023-02-13T08:05:41.375Z,89.69
2023-02-13T08:08:43.617Z,90.03
2023-02-13T08:12:09.512Z,90.26
2023-02-13T08:15:13.294Z,89.60
2023-02-13T08:18:17.022Z,90.32
2023-02-13T08:21:20.845Z,89.78
2023-02-13T08:24:25.704Z,89.27
2023-02-13T08:27:30.240Z,89.22
2023-02-13T08:30:33.535Z,89.12
2023-02-13T08:33:35.850Z,88.80
2023-02-13T08:36:38.676Z,88.93
2023-02-13T08:39:41.112Z,87.84
2023-02-13T08:42:43.679Z,86.39
2023-02-13T08:45:46.038Z,85.91
2023-02-13T08:48:48.789Z,84.50
2023-02-13T08:51:51.036Z,83.87
2023-02-13T08:54:53.545Z,82.84
2023-02-13T08:57:55.736Z,80.94
2023-02-13T09:00:58.806Z,78.81
2023-02-13T09:04:01.059Z,77.41
2023-02-13T09:07:03.702Z,76.39
2023-02-13T09:10:06.614Z,75.11
2023-02-13T09:13:09.649Z,72.39
2023-02-13T09:16:12.112Z,70.97
2023-02-13T09:19:14.778Z,68.85
2023-02-13T09:22:17.319Z,67.17
2023-02-13T09:25:21.645Z,66.93
2023-02-13T09:28:23.902Z,66.11
2023-02-13T09:31:29.173Z,64.63
2023-02-13T09:34:31.905Z,62.67
2023-02-13T09:37:34.428Z,63.79
2023-02-13T09:40:51.478Z,63.24
2023-02-13T09:43:59.620Z,62.51
2023-02-13T09:47:14.921Z,63.58
2023-02-13T09:50:24.498Z,62.91
2023-02-13T09:53:29.649Z,62.26
2023-02-13T09:56:52.684Z,62.79
2023-02-13T10:00:13.170Z,62.63
2023-02-13T10:03:28.705Z,62.63
2023-02-13T10:06:49.974Z,61.78
2023-02-13T10:09:59.040Z,62.57
2023-02-13T10:13:23.625Z,62.78
2023-02-13T10:16:35.888Z,62.06
2023-02-13T10:20:01.596Z,61.66
2023-02-13T10:23:27.043Z,62.18
2023-02-13T10:26:43.656Z,60.94
2023-02-13T10:30:12.759Z,61.83
2023-02-13T10:33:36.728Z,61.25
2023-02-13T10:36:44.500Z,60.01
2023-02-13T10:39:53.249Z,60.57
2023-02-13T10:43:08.200Z,61.09
2023-02-13T10:46:22.346Z,59.85
2023-02-13T10:49:37.970Z,60.13
2023-02-13T10:52:50.812Z,58.07
2023-02-13T10:56:01.976Z,58.45
2023-02-13T10:59:16.263Z,58.72
2023-02-13T11:02:23.318Z,59.03
2023-02-13T11:05:52.455Z,58.46
2023-02-13T11:08:57.023Z,58.70
2023-02-13T11:11:59.669Z,58.92
2023-02-13T11:15:06.603Z,58.68
2023-02-13T11:18:19.674Z,59.21
2023-02-13T11:21:37.232Z,59.39
2023-02-13T11:24:55.732Z,58.61
2023-02-13T11:28:17.911Z,59.08
2023-02-13T11:31:34.986Z,59.07
2023-02-13T11:34:37.974Z,58.62
2023-02-13T11:37:40.599Z,57.57
2023-02-13T11:40:47.365Z,56.37
2023-02-13T11:44:01.657Z,54.90
2023-02-13T11:47:04.386Z,55.79
2023-02-13T11:50:46.225Z,55.67
2023-02-13T11:53:49.171Z,55.17
2023-02-13T11:57:04.867Z,55.19
2023-02-13T12:00:29.661Z,55.37
2023-02-13T12:03:33.380Z,54.82
2023-02-13T12:06:39.851Z,54.60
2023-02-13T12:09:45.456Z,55.41
2023-02-13T12:12:55.770Z,54.97
2023-02-13T12:16:03.616Z,54.66
2023-02-13T12:19:12.206Z,54.28
2023-02-13T12:22:28.616Z,54.86
2023-02-13T12:25:48.479Z,54.21
2023-02-13T12:29:00.641Z,53.71
2023-02-13T12:32:21.384Z,53.66
2023-02-13T12:35:48.971Z,54.55
2023-02-13T12:39:01.780Z,54.25
2023-02-13T12:42:19.659Z,53.11
2023-02-13T12:45:40.804Z,53.34
2023-02-13T12:49:03.556Z,54.02
2023-02-13T12:52:09.044Z,53.96
2023-02-13T12:55:26.890Z,54.06
2023-02-13T12:58:57.573Z,52.89
2023-02-13T13:02:18.577Z,53.18
2023-02-13T13:05:31.384Z,53.63
2023-02-13T13:09:00.044Z,53.00
2023-02-13T13:12:11.167Z,52.65
2023-02-13T13:15:16.478Z,53.23
2023-02-13T13:18:37.077Z,53.25
2023-02-13T13:22:00.129Z,52.92
2023-02-13T13:25:43.076Z,52.37
2023-02-13T13:28:49.502Z,52.69
2023-02-13T13:31:59.860Z,53.25
2023-02-13T13:35:03.594Z,52.97
2023-02-13T13:38:17.386Z,52.31
2023-02-13T13:41:39.872Z,52.84
2023-02-13T13:44:48.157Z,53.34
2023-02-13T13:48:09.614Z,52.27
2023-02-13T13:51:17.035Z,51.42
2023-02-13T13:54:24.394Z,52.25
2023-02-13T13:57:46.775Z,52.74
2023-02-13T14:01:29.728Z,52.88
2023-02-13T14:04:33.110Z,53.90
2023-02-13T14:07:41.528Z,54.15
2023-02-13T14:10:50.400Z,54.16
2023-02-13T14:13:52.785Z,54.41
2023-02-13T14:16:58.143Z,54.80
2023-02-13T14:20:00.990Z,55.69
2023-02-13T14:23:26.528Z,55.56
2023-02-13T14:26:33.405Z,55.79
2023-02-13T14:29:36.357Z,55.14
2023-02-13T14:32:41.224Z,55.65
2023-02-13T14:35:44.114Z,55.80
2023-02-13T14:38:56.317Z,55.92
2023-02-13T14:42:01.454Z,57.24
2023-02-13T14:45:11.115Z,57.42
2023-02-13T14:48:15.361Z,57.82
2023-02-13T14:51:28.746Z,57.29
2023-02-13T14:54:49.355Z,57.90
2023-02-13T14:58:10.829Z,58.42
2023-02-13T15:01:31.871Z,58.63
2023-02-13T15:04:46.826Z,60.15
2023-02-13T15:08:16.264Z,61.52
2023-02-13T15:11:37.736Z,62.13
2023-02-13T15:14:40.738Z,62.51
2023-02-13T15:17:43.116Z,63.26
2023-02-13T15:20:47.108Z,63.99
2023-02-13T15:23:52.611Z,64.10
2023-02-13T15:27:03.994Z,64.86
2023-02-13T15:30:15.064Z,65.32
2023-02-13T15:33:19.236Z,65.63
2023-02-13T15:36:25.493Z,66.44
2023-02-13T15:39:31.864Z,66.01
2023-02-13T15:42:34.802Z,66.51
2023-02-13T15:45:37.233Z,66.62
2023-02-13T15:48:39.408Z,66.21
2023-02-13T15:51:42.278Z,66.21
2023-02-13T15:54:53.053Z,66.29
2023-02-13T15:57:57.499Z,66.35
2023-02-13T16:01:09.336Z,66.50
2023-02-13T16:04:15.320Z,66.87
2023-02-13T16:07:17.641Z,67.11
2023-02-13T16:10:29.556Z,67.52
2023-02-13T16:13:31.849Z,67.07
2023-02-13T16:16:49.477Z,66.90
2023-02-13T16:19:54.093Z,67.35
2023-02-13T16:22:59.151Z,67.10
2023-02-13T16:26:06.150Z,66.70
2023-02-13T16:29:11.460Z,67.12
2023-02-13T16:32:22.186Z,66.74
2023-02-13T16:35:29.056Z,66.58
2023-02-13T16:38:43.502Z,66.95
2023-02-13T16:41:45.985Z,67.24
2023-02-13T16:44:48.238Z,67.46
2023-02-13T16:48:02.451Z,67.80
2023-02-13T16:51:05.066Z,68.10
2023-02-13T16:54:10.564Z,68.27
2023-02-13T16:57:17.493Z,68.22
2023-02-13T17:00:24.430Z,68.78
2023-02-13T17:03:26.648Z,68.93
2023-02-13T17:06:29.053Z,69.53
2023-02-13T17:09:31.297Z,69.70
2023-02-13T17:12:38.629Z,70.14
2023-02-13T17:15:45.881Z,69.68
2023-02-13T17:18:48.354Z,69.47
2023-02-13T17:21:55.653Z,69.82
2023-02-13T17:24:59.226Z,69.76
2023-02-13T17:28:24.134Z,69.30
2023-02-13T17:31:26.625Z,69.32
2023-02-13T17:34:28.897Z,69.65
2023-02-13T17:37:32.816Z,70.77
2023-02-13T17:40:35.324Z,70.75
2023-02-13T17:43:37.927Z,71.00
2023-02-13T17:46:40.553Z,71.23
2023-02-13T17:49:43.098Z,71.09
2023-02-13T17:52:47.568Z,71.06
2023-02-13T17:55:50.805Z,71.08
2023-02-13T17:58:52.944Z,71.47
2023-02-13T18:01:55.448Z,72.21
2023-02-13T18:04:57.889Z,72.55
2023-02-13T18:08:02.616Z,72.80
2023-02-13T18:11:10.826Z,73.32
2023-02-13T18:14:12.977Z,73.44
2023-02-13T18:17:16.012Z,73.44
2023-02-13T18:20:23.585Z,74.52
2023-02-13T18:23:26.148Z,75.18
2023-02-13T18:26:28.312Z,76.28
2023-02-13T18:29:30.813Z,76.27
2023-02-13T18:32:32.938Z,77.06
2023-02-13T18:35:37.292Z,77.61
2023-02-13T18:38:39.394Z,77.69
2023-02-13T18:41:42.142Z,77.68
2023-02-13T18:44:44.280Z,77.89
2023-02-13T18:47:46.716Z,77.57
2023-02-13T18:50:49.267Z,78.05
2023-02-13T18:53:51.969Z,78.46
2023-02-13T18:56:54.265Z,78.55
2023-02-13T18:59:56.749Z,78.76
2023-02-13T19:02:59.663Z,78.50
2023-02-13T19:06:08.305Z,79.14
2023-02-13T19:09:10.834Z,79.06
2023-02-13T19:12:13.370Z,79.44
2023-02-13T19:15:16.463Z,79.83
2023-02-13T19:18:18.884Z,79.92
2023-02-13T19:21:23.324Z,80.04
2023-02-13T19:24:25.750Z,80.24
2023-02-13T19:27:27.918Z,80.45
2023-02-13T19:30:30.353Z,80.61
2023-02-13T19:33:32.790Z,80.40
2023-02-13T19:36:35.236Z,79.97
2023-02-13T19:39:37.497Z,80.28
2023-02-13T19:42:40.336Z,80.40
2023-02-13T19:45:43.634Z,80.52
2023-02-13T19:48:49.254Z,80.12
2023-02-13T19:51:51.489Z,79.72
2023-02-13T19:54:54.213Z,79.40
2023-02-13T19:57:56.362Z,79.47
2023-02-13T20:01:14.843Z,79.86
2023-02-13T20:04:17.358Z,79.29
2023-02-13T20:07:19.560Z,79.63
2023-02-13T20:10:22.006Z,78.95
2023-02-13T20:13:24.782Z,78.26
2023-02-13T20:16:27.909Z,77.33
2023-02-13T20:19:30.704Z,77.02
2023-02-13T20:22:33.141Z,76.94
2023-02-13T20:25:35.553Z,77.06
2023-02-13T20:28:38.244Z,76.98
2023-02-13T20:31:41.507Z,76.16
2023-02-13T20:34:58.707Z,75.77
2023-02-13T20:38:01.983Z,75.00
2023-02-13T20:41:12.262Z,74.84
2023-02-13T20:44:16.127Z,74.48
2023-02-13T20:47:18.745Z,74.18
2023-02-13T20:50:21.171Z,74.04
2023-02-13T20:53:23.558Z,73.89
2023-02-13T20:56:28.100Z,73.05
2023-02-13T20:59:30.658Z,72.74
2023-02-13T21:02:32.854Z,71.67
2023-02-13T21:05:35.370Z,71.16
2023-02-13T21:08:38.100Z,71.28
2023-02-13T21:11:43.077Z,70.74
2023-02-13T21:14:45.251Z,70.68
2023-02-13T21:17:47.704Z,70.98
2023-02-13T21:20:49.904Z,70.88
2023-02-13T21:23:54.221Z,71.36
2023-02-13T21:26:56.400Z,72.17
2023-02-13T21:29:58.911Z,72.62
2023-02-13T21:33:01.090Z,72.55
2023-02-13T21:36:06.685Z,72.44
2023-02-13T21:39:10.488Z,71.66
2023-02-13T21:42:12.969Z,71.84
2023-02-13T21:45:15.289Z,72.13
2023-02-13T21:48:17.706Z,72.22
2023-02-13T21:51:20.539Z,72.53
2023-02-13T21:54:22.993Z,73.13
2023-02-13T21:57:25.175Z,73.70
2023-02-13T22:00:27.601Z,73.73
2023-02-13T22:03:30.327Z,74.00
2023-02-13T22:06:35.417Z,74.33
2023-02-13T22:09:38.056Z,74.41
2023-02-13T22:12:40.221Z,75.16
2023-02-13T22:15:42.681Z,75.29
2023-02-13T22:18:45.523Z,75.61
2023-02-13T22:21:48.038Z,75.95
2023-02-13T22:24:50.261Z,76.14
2023-02-13T22:27:52.659Z,76.08
2023-02-13T22:30:55.164Z,76.00
2023-02-13T22:34:03.813Z,76.15
2023-02-13T22:37:08.396Z,76.29
2023-02-13T22:40:11.246Z,76.55
2023-02-13T22:43:13.370Z,76.82
2023-02-13T22:46:22.749Z,77.06
2023-02-13T22:49:25.005Z,77.25
2023-02-13T22:52:27.406Z,77.86
2023-02-13T22:55:29.532Z,77.90
2023-02-13T22:58:32.137Z,78.71
2023-02-13T23:01:34.363Z,80.00
2023-02-13T23:04:36.828Z,80.64
2023-02-13T23:07:39.118Z,81.21
2023-02-13T23:11:04.879Z,81.44
2023-02-13T23:14:07.247Z,81.96
2023-02-13T23:17:28.403Z,83.07
2023-02-13T23:20:30.576Z,83.04
2023-02-13T23:23:36.015Z,83.28
2023-02-13T23:26:38.583Z,83.52
2023-02-13T23:29:41.076Z,85.33
2023-02-13T23:32:43.243Z,85.24
2023-02-13T23:35:45.633Z,85.67
2023-02-13T23:38:49.332Z,85.64
2023-02-13T23:41:51.791Z,85.57
2023-02-13T23:44:54.649Z,86.63
2023-02-13T23:47:57.148Z,87.46
2023-02-13T23:51:00.143Z,87.66
2023-02-13T23:54:03.139Z,87.00
2023-02-13T23:57:05.515Z,86.20
